createdAt,value
2018-08-30T00:00:07.702Z,7.00
2018-08-30T00:02:36.176Z,7.77
2018-08-30T00:05:05.085Z,8.97
2018-08-30T00:07:33.585Z,9.00
2018-08-30T00:10:02.093Z,8.97
2018-08-30T00:12:30.565Z,8.67
2018-08-30T00:14:59.052Z,8.83
2018-08-30T00:17:27.545Z,9.17
2018-08-30T00:19:56.054Z,9.87
2018-08-30T00:22:24.567Z,8.73
2018-08-30T00:24:53.076Z,8.87
2018-08-30T00:27:21.580Z,9.40
2018-08-30T00:29:50.081Z,9.47
2018-08-30T00:32:18.617Z,8.80
2018-08-30T00:34:47.096Z,8.70
2018-08-30T00:37:15.591Z,9.20
2018-08-30T00:39:44.054Z,9.10
2018-08-30T00:42:12.579Z,9.20
2018-08-30T00:44:41.129Z,8.83
2018-08-30T00:47:13.631Z,8.70
2018-08-30T00:49:42.116Z,9.10
2018-08-30T00:52:10.627Z,10.07
2018-08-30T00:54:39.101Z,9.40
2018-08-30T00:57:07.604Z,9.93
2018-08-30T00:59:36.054Z,9.60
2018-08-30T01:02:04.570Z,9.70
2018-08-30T01:04:33.101Z,9.77
2018-08-30T01:07:01.606Z,9.70
2018-08-30T01:09:30.077Z,10.47
2018-08-30T01:11:58.614Z,10.97
2018-08-30T01:14:27.089Z,11.10
2018-08-30T01:16:55.577Z,11.60
2018-08-30T01:19:24.068Z,10.30
2018-08-30T01:21:52.575Z,10.50
2018-08-30T01:24:21.107Z,10.57
2018-08-30T01:26:49.592Z,10.50
2018-08-30T01:29:18.113Z,9.93
2018-08-30T01:31:46.658Z,10.33
2018-08-30T01:34:15.131Z,10.30
2018-08-30T01:36:44.641Z,12.17
2018-08-30T01:39:13.137Z,11.73
2018-08-30T01:41:42.720Z,12.40
2018-08-30T01:44:11.790Z,14.10
2018-08-30T01:46:40.309Z,15.33
2018-08-30T01:49:08.785Z,14.93
2018-08-30T01:51:37.305Z,14.70
2018-08-30T01:54:05.992Z,13.97
2018-08-30T01:56:34.485Z,14.47
2018-08-30T01:59:02.971Z,13.20
2018-08-30T02:01:31.464Z,12.37
2018-08-30T02:03:59.930Z,11.93
2018-08-30T02:06:28.462Z,9.73
2018-08-30T02:08:56.993Z,10.23
2018-08-30T02:11:25.478Z,10.17
2018-08-30T02:13:53.972Z,10.33
2018-08-30T02:16:22.481Z,11.07
2018-08-30T02:18:51.012Z,11.40
2018-08-30T02:21:19.478Z,9.30
2018-08-30T02:23:47.977Z,11.00
2018-08-30T02:26:16.430Z,10.47
2018-08-30T02:28:44.921Z,9.67
2018-08-30T02:31:13.393Z,8.90
2018-08-30T02:33:41.889Z,8.97
2018-08-30T02:36:10.361Z,9.30
2018-08-30T02:38:38.872Z,8.47
2018-08-30T02:41:07.341Z,7.80
2018-08-30T02:43:35.812Z,7.10
2018-08-30T02:46:04.432Z,6.50
2018-08-30T02:48:32.940Z,6.00
2018-08-30T02:51:01.395Z,6.53
2018-08-30T02:53:29.892Z,6.03
2018-08-30T02:55:58.349Z,5.90
2018-08-30T03:12:10.993Z,4.30
2018-08-30T03:14:39.495Z,4.40
2018-08-30T03:17:07.982Z,4.30
2018-08-30T03:19:36.500Z,4.60
2018-08-30T03:22:04.960Z,4.83
2018-08-30T03:24:33.446Z,4.47
2018-08-30T03:27:01.909Z,4.63
2018-08-30T03:29:30.389Z,4.23
2018-08-30T03:31:58.857Z,4.87
2018-08-30T03:34:27.358Z,4.60
2018-08-30T03:36:55.813Z,4.50
2018-08-30T03:39:24.337Z,4.87
2018-08-30T03:41:52.801Z,4.50
2018-08-30T03:44:21.291Z,5.13
2018-08-30T03:46:49.773Z,4.80
2018-08-30T03:49:18.250Z,4.77
2018-08-30T03:51:46.709Z,4.73
2018-08-30T03:54:15.193Z,4.90
2018-08-30T03:56:43.637Z,4.53
2018-08-30T03:59:12.137Z,4.80
2018-08-30T04:01:40.634Z,4.67
2018-08-30T04:04:09.160Z,4.97
2018-08-30T04:06:37.631Z,4.67
2018-08-30T04:09:08.205Z,4.80
2018-08-30T04:11:36.741Z,4.40
2018-08-30T04:14:05.252Z,4.17
2018-08-30T04:16:33.705Z,4.47
2018-08-30T04:19:05.730Z,4.40
2018-08-30T04:21:34.689Z,4.50
2018-08-30T04:24:04.368Z,4.73
2018-08-30T04:26:32.881Z,4.70
2018-08-30T04:29:02.197Z,5.20
2018-08-30T04:31:30.935Z,4.93
2018-08-30T04:33:59.414Z,5.13
2018-08-30T04:36:27.870Z,5.50
2018-08-30T04:38:57.565Z,5.57
2018-08-30T04:41:26.230Z,6.43
2018-08-30T04:43:54.700Z,5.70
2018-08-30T04:46:23.196Z,6.00
2018-08-30T04:48:51.801Z,7.50
2018-08-30T04:51:20.281Z,7.67
2018-08-30T04:53:48.961Z,7.27
2018-08-30T04:56:17.402Z,7.20
2018-08-30T04:58:45.934Z,7.80
2018-08-30T05:01:15.852Z,7.53
2018-08-30T05:03:44.482Z,8.63
2018-08-30T05:06:12.973Z,8.23
2018-08-30T05:08:41.475Z,8.93
2018-08-30T05:11:10.352Z,8.93
2018-08-30T05:13:38.817Z,8.60
2018-08-30T05:16:09.432Z,8.77
2018-08-30T05:18:37.882Z,8.43
2018-08-30T05:21:06.388Z,9.47
2018-08-30T05:23:34.836Z,10.10
2018-08-30T05:26:03.334Z,9.20
2018-08-30T05:28:32.273Z,9.43
2018-08-30T05:31:00.782Z,8.17
2018-08-30T05:33:29.237Z,8.90
2018-08-30T05:35:57.742Z,8.07
2018-08-30T05:38:26.222Z,8.00
2018-08-30T05:40:54.708Z,8.73
2018-08-30T05:43:23.164Z,8.10
2018-08-30T05:45:51.655Z,7.10
2018-08-30T05:48:20.117Z,7.23
2018-08-30T05:50:48.600Z,6.93
2018-08-30T05:53:17.054Z,7.20
2018-08-30T05:55:45.600Z,7.20
2018-08-30T05:58:14.089Z,6.50
2018-08-30T06:00:42.613Z,6.30
2018-08-30T06:03:11.105Z,5.97
2018-08-30T06:05:39.598Z,5.97
2018-08-30T06:08:08.161Z,5.20
2018-08-30T06:10:36.721Z,5.23
2018-08-30T06:13:05.283Z,5.03
2018-08-30T06:15:33.749Z,4.70
2018-08-30T06:18:02.206Z,4.47
2018-08-30T06:20:30.706Z,4.40
2018-08-30T06:22:59.159Z,4.63
2018-08-30T06:25:27.655Z,5.00
2018-08-30T06:27:56.124Z,4.33
2018-08-30T06:30:24.667Z,4.83
2018-08-30T06:32:53.138Z,4.80
2018-08-30T06:35:21.658Z,5.10
2018-08-30T06:37:50.211Z,4.87
2018-08-30T06:40:18.692Z,5.00
2018-08-30T06:42:47.145Z,4.53
2018-08-30T06:45:15.641Z,4.43
2018-08-30T06:47:44.152Z,4.83
2018-08-30T06:50:12.634Z,4.70
2018-08-30T06:52:41.081Z,4.40
2018-08-30T07:02:11.089Z,4.17
2018-08-30T07:04:39.556Z,4.03
2018-08-30T07:07:08.110Z,4.17
2018-08-30T07:09:36.644Z,4.20
2018-08-30T07:12:05.489Z,4.30
2018-08-30T07:14:33.962Z,4.10
2018-08-30T07:17:02.453Z,3.90
2018-08-30T07:19:30.933Z,4.23
2018-08-30T07:21:59.455Z,4.20
2018-08-30T07:24:27.928Z,3.93
2018-08-30T07:26:56.436Z,4.13
2018-08-30T07:29:24.901Z,4.10
2018-08-30T07:31:53.393Z,4.57
2018-08-30T07:34:21.949Z,4.67
2018-08-30T07:36:50.365Z,4.87
2018-08-30T07:39:18.845Z,5.27
2018-08-30T07:41:47.324Z,5.37
2018-08-30T07:44:15.844Z,5.13
2018-08-30T07:46:44.286Z,7.67
2018-08-30T07:49:12.773Z,12.93
2018-08-30T07:51:41.288Z,17.83
2018-08-30T07:54:09.839Z,12.37
2018-08-30T07:56:38.483Z,17.47
2018-08-30T07:59:07.009Z,16.10
2018-08-30T08:01:35.519Z,17.63
2018-08-30T08:04:04.019Z,10.40
2018-08-30T08:06:32.537Z,15.03
2018-08-30T08:09:01.027Z,17.10
2018-08-30T08:11:29.569Z,25.03
2018-08-30T08:13:58.161Z,14.87
2018-08-30T08:16:26.700Z,25.40
2018-08-30T08:18:55.226Z,15.80
2018-08-30T08:21:23.759Z,9.97
2018-08-30T08:23:52.234Z,8.67
2018-08-30T08:26:20.836Z,8.17
2018-08-30T08:28:49.471Z,7.33
2018-08-30T08:31:17.999Z,6.83
2018-08-30T08:33:46.544Z,6.67
2018-08-30T08:36:15.118Z,6.72
2018-08-30T08:38:43.636Z,7.30
2018-08-30T08:41:12.174Z,7.50
2018-08-30T08:43:40.704Z,7.30
2018-08-30T08:46:09.237Z,8.40
2018-08-30T08:48:37.742Z,8.10
2018-08-30T08:51:06.466Z,8.17
2018-08-30T08:53:35.027Z,7.67
2018-08-30T08:56:03.518Z,7.73
2018-08-30T08:58:32.060Z,8.30
2018-08-30T09:01:00.538Z,8.43
2018-08-30T09:03:29.090Z,8.43
2018-08-30T09:05:57.589Z,7.90
2018-08-30T09:08:26.129Z,8.40
2018-08-30T09:10:54.950Z,8.27
2018-08-30T09:13:23.450Z,8.00
2018-08-30T09:15:51.945Z,8.53
2018-08-30T09:18:20.484Z,8.63
2018-08-30T09:20:49.338Z,7.80
2018-08-30T09:23:17.845Z,8.20
2018-08-30T09:25:46.330Z,8.23
2018-08-30T09:28:14.857Z,8.00
2018-08-30T09:30:43.333Z,8.53
2018-08-30T09:33:11.845Z,8.77
2018-08-30T09:35:40.333Z,9.00
2018-08-30T09:38:08.863Z,8.97
2018-08-30T09:40:37.374Z,8.63
2018-08-30T09:43:05.906Z,8.77
2018-08-30T09:45:34.772Z,8.80
2018-08-30T09:48:03.280Z,8.77
2018-08-30T09:50:31.793Z,9.77
2018-08-30T09:53:00.325Z,9.03
2018-08-30T09:55:28.793Z,9.37
2018-08-30T09:57:57.310Z,8.40
2018-08-30T10:01:28.728Z,8.63
2018-08-30T10:03:57.312Z,8.30
2018-08-30T10:06:26.093Z,9.17
2018-08-30T10:08:55.641Z,9.43
2018-08-30T10:11:24.190Z,8.87
2018-08-30T10:13:54.039Z,8.63
2018-08-30T10:16:22.549Z,8.53
2018-08-30T10:18:51.821Z,9.30
2018-08-30T10:21:20.384Z,9.17
2018-08-30T10:23:49.621Z,9.53
2018-08-30T10:26:18.607Z,9.03
2018-08-30T10:28:47.159Z,8.83
2018-08-30T10:31:15.638Z,9.10
2018-08-30T10:33:44.129Z,9.10
2018-08-30T10:36:12.573Z,9.37
2018-08-30T10:38:41.301Z,8.57
2018-08-30T10:41:09.808Z,8.60
2018-08-30T10:43:38.325Z,9.20
2018-08-30T10:46:06.926Z,9.10
2018-08-30T10:48:35.615Z,8.07
2018-08-30T10:51:04.090Z,8.00
2018-08-30T10:53:32.692Z,6.97
2018-08-30T10:56:01.511Z,7.40
2018-08-30T10:58:30.080Z,8.90
2018-08-30T11:00:58.629Z,8.40
2018-08-30T11:03:27.292Z,8.80
2018-08-30T11:05:55.885Z,8.67
2018-08-30T11:08:24.412Z,9.10
2018-08-30T11:10:52.941Z,8.47
2018-08-30T11:13:21.567Z,9.00
2018-08-30T11:15:50.067Z,8.23
2018-08-30T11:18:18.732Z,8.13
2018-08-30T11:20:50.205Z,7.80
2018-08-30T11:23:18.745Z,6.37
2018-08-30T11:25:47.346Z,6.47
2018-08-30T11:28:15.873Z,6.10
2018-08-30T11:30:44.428Z,6.60
2018-08-30T11:33:13.021Z,6.50
2018-08-30T11:35:41.540Z,6.27
2018-08-30T11:38:10.061Z,6.17
2018-08-30T11:40:38.542Z,6.47
2018-08-30T11:43:07.121Z,6.50
2018-08-30T11:45:35.719Z,6.53
2018-08-30T11:48:04.539Z,6.93
2018-08-30T11:50:33.061Z,6.67
2018-08-30T11:53:01.525Z,6.83
2018-08-30T11:55:30.055Z,6.93
2018-08-30T11:57:58.557Z,6.67
2018-08-30T12:00:27.074Z,6.60
2018-08-30T12:02:58.009Z,7.00
2018-08-30T12:05:26.609Z,6.30
2018-08-30T12:07:55.195Z,6.53
2018-08-30T12:10:24.117Z,6.97
2018-08-30T12:12:52.796Z,6.43
2018-08-30T12:15:21.321Z,6.60
2018-08-30T12:17:51.511Z,6.40
2018-08-30T12:20:20.137Z,6.30
2018-08-30T12:22:49.326Z,5.60
2018-08-30T12:25:18.550Z,5.50
2018-08-30T12:27:48.002Z,5.40
2018-08-30T12:30:16.586Z,5.62
2018-08-30T12:32:45.127Z,5.22
2018-08-30T12:35:13.727Z,5.20
2018-08-30T12:37:44.167Z,5.00
2018-08-30T12:40:12.780Z,5.62
2018-08-30T12:42:41.267Z,5.40
2018-08-30T12:45:09.787Z,5.20
2018-08-30T12:47:38.298Z,5.57
2018-08-30T12:50:07.253Z,4.70
2018-08-30T12:52:35.803Z,3.40
2018-08-30T12:55:04.359Z,2.83
2018-08-30T12:57:32.829Z,2.90
2018-08-30T13:00:01.425Z,2.93
2018-08-30T13:02:29.983Z,2.90
2018-08-30T13:04:58.452Z,3.10
2018-08-30T13:07:27.005Z,3.07
2018-08-30T13:09:55.826Z,3.10
2018-08-30T13:12:24.345Z,3.00
2018-08-30T13:14:52.882Z,2.90
2018-08-30T13:17:21.319Z,3.10
2018-08-30T13:19:50.054Z,2.93
2018-08-30T13:22:18.341Z,3.10
2018-08-30T13:24:46.988Z,3.10
2018-08-30T13:27:15.406Z,2.70
2018-08-30T13:29:44.068Z,2.80
2018-08-30T13:32:12.587Z,2.80
2018-08-30T13:34:41.039Z,2.97
2018-08-30T13:37:09.729Z,3.00
2018-08-30T13:39:38.258Z,3.27
2018-08-30T13:42:06.643Z,3.07
2018-08-30T13:44:35.217Z,3.37
2018-08-30T13:47:03.693Z,3.20
2018-08-30T13:49:32.094Z,3.23
2018-08-30T13:52:00.753Z,2.80
2018-08-30T13:54:29.922Z,2.90
2018-08-30T13:56:58.605Z,3.43
2018-08-30T13:59:27.284Z,3.20
2018-08-30T14:01:55.479Z,3.03
2018-08-30T14:04:23.891Z,3.00
2018-08-30T14:06:52.516Z,2.73
2018-08-30T14:09:21.108Z,3.27
2018-08-30T14:11:49.652Z,2.93
2018-08-30T14:14:18.033Z,2.83
2018-08-30T14:16:46.330Z,3.03
2018-08-30T14:19:15.251Z,3.30
2018-08-30T14:21:43.738Z,3.40
2018-08-30T14:24:12.224Z,3.30
2018-08-30T14:26:40.848Z,3.40
2018-08-30T14:29:09.664Z,3.20
2018-08-30T14:31:38.170Z,3.30
2018-08-30T14:34:06.658Z,3.43
2018-08-30T14:36:35.201Z,3.30
2018-08-30T14:39:04.074Z,2.90
2018-08-30T14:41:32.692Z,3.23
2018-08-30T14:44:01.162Z,3.17
2018-08-30T14:46:29.648Z,3.00
2018-08-30T14:48:58.138Z,2.87
2018-08-30T14:51:26.658Z,2.80
2018-08-30T14:53:55.301Z,3.37
2018-08-30T14:56:23.607Z,2.97
2018-08-30T14:58:52.068Z,3.10
2018-08-30T15:01:20.636Z,2.92
2018-08-30T15:03:49.082Z,2.85
2018-08-30T15:06:17.767Z,3.10
2018-08-30T15:08:46.142Z,1.90
2018-08-30T15:11:14.672Z,1.80
2018-08-30T15:13:43.131Z,2.50
2018-08-30T15:16:11.645Z,2.10
2018-08-30T15:18:40.122Z,2.15
2018-08-30T15:21:10.726Z,2.20
2018-08-30T15:23:39.798Z,2.47
2018-08-30T15:26:08.326Z,2.60
2018-08-30T15:28:38.910Z,2.70
2018-08-30T15:31:07.572Z,2.40
2018-08-30T15:33:35.929Z,2.58
2018-08-30T15:36:04.625Z,2.72
2018-08-30T15:38:33.126Z,2.60
2018-08-30T15:41:04.305Z,3.27
2018-08-30T15:43:32.815Z,3.20
2018-08-30T15:46:01.329Z,2.97
2018-08-30T15:48:30.305Z,3.07
2018-08-30T15:50:58.793Z,2.67
2018-08-30T15:53:27.889Z,2.90
2018-08-30T15:55:56.449Z,2.20
2018-08-30T15:58:25.898Z,2.30
2018-08-30T16:00:55.202Z,2.10
2018-08-30T16:03:23.713Z,1.97
2018-08-30T16:05:52.268Z,2.30
2018-08-30T16:08:20.786Z,2.17
2018-08-30T16:10:49.283Z,2.30
2018-08-30T16:13:17.771Z,2.00
2018-08-30T16:15:46.223Z,2.17
2018-08-30T16:18:14.738Z,2.22
2018-08-30T16:20:43.190Z,2.22
2018-08-30T16:23:23.842Z,2.50
2018-08-30T16:25:52.234Z,2.25
2018-08-30T16:28:20.893Z,2.45
2018-08-30T16:30:49.459Z,2.30
2018-08-30T16:33:18.143Z,2.35
2018-08-30T16:35:46.708Z,2.58
2018-08-30T16:38:15.628Z,2.50
2018-08-30T16:40:44.468Z,2.58
2018-08-30T16:43:12.993Z,2.75
2018-08-30T16:45:41.479Z,2.90
2018-08-30T16:48:09.969Z,2.75
2018-08-30T16:50:38.458Z,3.00
2018-08-30T16:53:07.020Z,3.27
2018-08-30T16:55:35.912Z,5.00
2018-08-30T16:58:04.545Z,8.10
2018-08-30T17:00:33.153Z,7.37
2018-08-30T17:03:01.778Z,5.70
2018-08-30T17:05:30.311Z,4.00
2018-08-30T17:07:59.457Z,4.22
2018-08-30T17:10:28.221Z,3.90
2018-08-30T17:12:57.365Z,3.80
2018-08-30T17:15:25.870Z,3.60
2018-08-30T17:17:54.476Z,3.70
2018-08-30T17:20:42.546Z,3.83
2018-08-30T17:23:11.437Z,4.10
2018-08-30T17:25:40.309Z,3.85
2018-08-30T17:28:08.822Z,4.00
2018-08-30T17:30:37.306Z,4.27
2018-08-30T17:33:05.912Z,4.23
2018-08-30T17:35:34.425Z,4.33
2018-08-30T17:38:02.918Z,4.73
2018-08-30T17:40:31.422Z,5.03
2018-08-30T17:43:00.105Z,4.67
2018-08-30T17:45:28.583Z,4.87
2018-08-30T17:47:57.082Z,4.40
2018-08-30T17:50:27.073Z,5.10
2018-08-30T17:52:55.499Z,4.90
2018-08-30T17:55:24.026Z,5.00
2018-08-30T17:57:53.071Z,5.57
2018-08-30T18:00:21.954Z,5.20
2018-08-30T18:02:50.574Z,5.00
2018-08-30T18:05:19.217Z,4.73
2018-08-30T18:07:47.783Z,4.77
2018-08-30T18:10:16.264Z,4.90
2018-08-30T18:12:44.714Z,5.57
2018-08-30T18:15:14.739Z,4.90
2018-08-30T18:17:44.375Z,4.77
2018-08-30T18:20:12.901Z,5.13
2018-08-30T18:22:41.389Z,5.00
2018-08-30T18:25:10.530Z,4.87
2018-08-30T18:27:38.985Z,4.90
2018-08-30T18:30:09.981Z,4.90
2018-08-30T18:32:38.818Z,4.73
2018-08-30T18:35:08.933Z,5.20
2018-08-30T18:37:38.740Z,5.20
2018-08-30T18:40:08.233Z,4.77
2018-08-30T18:42:38.523Z,4.80
2018-08-30T18:45:08.038Z,5.10
2018-08-30T18:47:36.872Z,4.90
2018-08-30T18:50:05.437Z,5.23
2018-08-30T18:52:34.260Z,4.90
2018-08-30T18:55:04.052Z,5.60
2018-08-30T18:57:32.497Z,5.33
2018-08-30T19:00:00.989Z,5.33
2018-08-30T19:02:29.455Z,6.03
2018-08-30T19:04:57.956Z,5.93
2018-08-30T19:07:26.432Z,6.87
2018-08-30T19:09:54.937Z,6.33
2018-08-30T19:12:23.391Z,6.63
2018-08-30T19:14:51.856Z,6.60
2018-08-30T19:17:25.402Z,6.13
2018-08-30T19:19:53.933Z,6.20
2018-08-30T19:22:22.387Z,5.80
2018-08-30T19:25:00.072Z,6.13
2018-08-30T19:27:30.337Z,5.93
2018-08-30T19:30:04.145Z,5.67
2018-08-30T19:32:33.341Z,6.00
2018-08-30T19:35:07.873Z,6.00
2018-08-30T19:37:36.349Z,6.63
2018-08-30T19:40:04.982Z,6.47
2018-08-30T19:42:33.509Z,6.07
2018-08-30T19:45:03.832Z,5.77
2018-08-30T19:47:32.378Z,5.77
2018-08-30T19:50:00.877Z,6.30
2018-08-30T19:52:33.027Z,5.83
2018-08-30T19:55:02.028Z,5.40
2018-08-30T19:57:30.493Z,5.00
2018-08-30T19:59:59.445Z,5.80
2018-08-30T20:02:27.955Z,6.03
2018-08-30T20:04:57.726Z,5.70
2018-08-30T20:07:26.204Z,5.63
2018-08-30T20:09:54.706Z,5.67
2018-08-30T20:12:23.877Z,5.77
2018-08-30T20:14:52.445Z,5.47
2018-08-30T20:17:20.986Z,5.47
2018-08-30T20:19:49.513Z,6.27
2018-08-30T20:22:18.022Z,5.63
2018-08-30T20:24:46.515Z,6.23
2018-08-30T20:27:15.014Z,6.23
2018-08-30T20:29:43.512Z,5.90
2018-08-30T20:32:12.011Z,5.80
2018-08-30T20:34:40.521Z,6.13
2018-08-30T20:37:08.989Z,5.87
2018-08-30T20:39:37.482Z,5.90
2018-08-30T20:42:08.265Z,6.07
2018-08-30T20:44:36.813Z,5.93
2018-08-30T20:47:05.403Z,7.70
2018-08-30T20:49:33.910Z,6.10
2018-08-30T20:52:02.421Z,6.30
2018-08-30T20:54:30.940Z,6.20
2018-08-30T20:56:59.495Z,5.80
2018-08-30T20:59:28.140Z,5.97
2018-08-30T21:01:56.797Z,6.37
2018-08-30T21:04:25.380Z,6.27
2018-08-30T21:06:53.946Z,5.83
2018-08-30T21:09:22.401Z,6.20
2018-08-30T21:11:50.856Z,6.93
2018-08-30T21:14:19.290Z,6.80
2018-08-30T21:16:47.782Z,6.80
2018-08-30T21:19:16.306Z,6.80
2018-08-30T21:21:44.799Z,7.43
2018-08-30T21:24:13.261Z,6.53
2018-08-30T21:26:41.766Z,6.77
2018-08-30T21:29:10.283Z,7.03
2018-08-30T21:31:38.778Z,7.10
2018-08-30T21:34:07.348Z,6.73
2018-08-30T21:36:36.154Z,6.97
2018-08-30T21:39:05.864Z,7.40
2018-08-30T21:41:35.169Z,7.17
2018-08-30T21:44:03.688Z,6.90
2018-08-30T21:46:32.350Z,6.97
2018-08-30T21:49:00.857Z,7.03
2018-08-30T21:51:29.389Z,7.13
2018-08-30T21:53:57.862Z,7.53
2018-08-30T21:56:26.357Z,7.47
2018-08-30T21:58:54.807Z,6.70
2018-08-30T22:01:23.337Z,7.57
2018-08-30T22:03:51.809Z,7.33
2018-08-30T22:06:20.309Z,7.57
2018-08-30T22:08:48.764Z,7.77
2018-08-30T22:11:17.286Z,7.90
2018-08-30T22:13:45.789Z,8.17
2018-08-30T22:16:14.307Z,7.83
2018-08-30T22:18:42.775Z,6.97
2018-08-30T22:21:11.279Z,7.70
2018-08-30T22:23:39.740Z,8.00
2018-08-30T22:26:08.277Z,7.43
2018-08-30T22:28:36.773Z,7.53
2018-08-30T22:31:05.361Z,7.80
2018-08-30T22:33:33.834Z,7.47
2018-08-30T22:36:02.337Z,8.10
2018-08-30T22:38:30.837Z,7.70
2018-08-30T22:40:59.325Z,7.50
2018-08-30T22:43:27.788Z,7.50
2018-08-30T22:45:56.558Z,7.27
2018-08-30T22:48:25.093Z,8.20
2018-08-30T22:50:53.554Z,7.80
2018-08-30T22:53:22.052Z,8.17
2018-08-30T22:55:50.518Z,8.00
2018-08-30T22:58:18.996Z,8.23
2018-08-30T23:00:47.465Z,8.53
2018-08-30T23:03:15.953Z,8.30
2018-08-30T23:05:44.449Z,7.83
2018-08-30T23:08:12.926Z,8.27
2018-08-30T23:10:41.383Z,7.87
2018-08-30T23:13:09.913Z,8.20
2018-08-30T23:15:38.376Z,7.97
2018-08-30T23:18:06.952Z,8.67
2018-08-30T23:20:35.405Z,8.00
2018-08-30T23:23:03.935Z,8.00
2018-08-30T23:25:32.394Z,7.90
2018-08-30T23:28:00.924Z,8.63
2018-08-30T23:30:29.409Z,8.23
2018-08-30T23:32:57.919Z,8.43
2018-08-30T23:35:27.743Z,9.10
2018-08-30T23:37:56.208Z,8.50
2018-08-30T23:40:24.704Z,9.60
2018-08-30T23:42:53.248Z,9.93
2018-08-30T23:45:22.302Z,9.03
2018-08-30T23:47:52.244Z,9.10
2018-08-30T23:50:21.318Z,8.53
2018-08-30T23:52:49.792Z,8.43
2018-08-30T23:55:18.278Z,9.23
2018-08-30T23:59:01.884Z,8.73
